createdAt,value
2022-07-29T00:01:44.148Z,1.83
2022-07-29T00:04:13.248Z,1.92
2022-07-29T00:06:42.409Z,1.90
2022-07-29T00:09:10.636Z,1.92
2022-07-29T00:11:39.088Z,2.35
2022-07-29T00:14:07.753Z,2.22
2022-07-29T00:16:37.910Z,2.42
2022-07-29T00:19:07.788Z,2.30
2022-07-29T00:21:36.364Z,2.35
2022-07-29T00:24:04.868Z,2.20
2022-07-29T00:26:33.641Z,2.13
2022-07-29T00:29:32.463Z,2.58
2022-07-29T00:31:53.205Z,2.08
2022-07-29T00:34:39.114Z,2.40
2022-07-29T00:37:07.839Z,2.25
2022-07-29T00:39:36.325Z,2.60
2022-07-29T00:42:05.865Z,2.05
2022-07-29T00:44:39.968Z,2.33
2022-07-29T00:47:11.069Z,2.28
2022-07-29T00:49:42.633Z,2.30
2022-07-29T00:52:12.889Z,2.08
2022-07-29T00:54:45.537Z,2.20
2022-07-29T00:57:14.683Z,2.00
2022-07-29T00:59:43.613Z,2.55
2022-07-29T01:02:13.344Z,2.00
2022-07-29T01:04:42.751Z,2.28
2022-07-29T01:07:10.989Z,2.40
2022-07-29T01:09:46.647Z,2.50
2022-07-29T01:12:19.990Z,2.20
2022-07-29T01:14:50.135Z,2.70
2022-07-29T01:17:26.288Z,2.58
2022-07-29T01:20:04.883Z,2.75
2022-07-29T01:22:58.507Z,2.30
2022-07-29T01:25:59.361Z,2.33
2022-07-29T01:29:04.057Z,2.53
2022-07-29T01:31:58.629Z,2.65
2022-07-29T01:34:37.985Z,2.80
2022-07-29T01:37:16.116Z,2.30
2022-07-29T01:39:46.022Z,2.60
2022-07-29T01:42:23.203Z,2.50
2022-07-29T01:44:59.966Z,2.55
2022-07-29T01:47:39.804Z,2.40
2022-07-29T01:50:13.614Z,2.92
2022-07-29T01:52:47.455Z,2.63
2022-07-29T01:55:18.132Z,2.35
2022-07-29T01:57:50.741Z,2.40
2022-07-29T02:00:22.019Z,2.50
2022-07-29T02:02:51.898Z,2.53
2022-07-29T02:05:23.161Z,2.90
2022-07-29T02:07:53.321Z,2.55
2022-07-29T02:10:26.498Z,2.78
2022-07-29T02:12:57.611Z,2.58
2022-07-29T02:15:29.990Z,2.63
2022-07-29T02:18:04.079Z,2.90
2022-07-29T02:20:32.741Z,2.55
2022-07-29T02:23:03.245Z,2.50
2022-07-29T02:25:37.038Z,3.00
2022-07-29T02:28:07.961Z,2.75
2022-07-29T02:30:42.889Z,2.50
2022-07-29T02:33:15.572Z,2.40
2022-07-29T02:35:46.037Z,2.83
2022-07-29T02:38:35.403Z,2.92
2022-07-29T02:41:09.659Z,2.67
2022-07-29T02:43:38.875Z,2.28
2022-07-29T02:46:29.181Z,2.65
2022-07-29T02:49:04.808Z,2.63
2022-07-29T02:51:44.963Z,2.40
2022-07-29T02:54:22.866Z,2.47
2022-07-29T02:56:54.676Z,2.85
2022-07-29T02:59:28.143Z,2.85
2022-07-29T03:02:01.538Z,2.65
2022-07-29T03:04:32.034Z,2.60
2022-07-29T03:07:02.431Z,2.83
2022-07-29T03:09:31.994Z,2.90
2022-07-29T03:12:00.791Z,2.97
2022-07-29T03:14:29.310Z,2.40
2022-07-29T03:16:59.735Z,2.90
2022-07-29T03:19:29.610Z,2.83
2022-07-29T03:21:59.731Z,3.05
2022-07-29T03:24:34.334Z,2.47
2022-07-29T03:27:03.954Z,2.72
2022-07-29T03:29:33.433Z,2.78
2022-07-29T03:32:07.392Z,2.80
2022-07-29T03:34:37.827Z,3.00
2022-07-29T03:37:06.891Z,2.78
2022-07-29T03:39:41.873Z,3.30
2022-07-29T03:42:14.939Z,3.17
2022-07-29T03:44:45.878Z,2.90
2022-07-29T03:47:17.116Z,3.30
2022-07-29T03:49:48.817Z,2.97
2022-07-29T03:52:17.796Z,3.10
2022-07-29T03:54:46.110Z,3.22
2022-07-29T03:57:15.467Z,2.97
2022-07-29T03:59:44.272Z,2.90
2022-07-29T04:02:20.092Z,2.70
2022-07-29T04:04:50.124Z,3.20
2022-07-29T04:07:18.749Z,3.53
2022-07-29T04:09:47.306Z,3.20
2022-07-29T04:12:15.805Z,3.33
2022-07-29T04:14:44.213Z,3.17
2022-07-29T04:17:12.445Z,3.13
2022-07-29T04:19:42.022Z,3.30
2022-07-29T04:22:10.214Z,3.65
2022-07-29T04:24:38.477Z,3.30
2022-07-29T04:27:06.644Z,3.63
2022-07-29T04:29:34.783Z,3.50
2022-07-29T04:32:03.145Z,3.30
2022-07-29T04:34:32.589Z,3.58
2022-07-29T04:37:02.206Z,3.10
2022-07-29T04:39:30.657Z,3.30
2022-07-29T04:41:58.980Z,3.25
2022-07-29T04:44:28.669Z,3.38
2022-07-29T04:46:58.769Z,3.80
2022-07-29T04:49:27.808Z,3.95
2022-07-29T04:51:56.263Z,4.10
2022-07-29T04:54:26.014Z,3.72
2022-07-29T04:56:54.591Z,3.80
2022-07-29T04:59:22.815Z,3.72
2022-07-29T05:01:51.062Z,3.55
2022-07-29T05:04:19.900Z,3.85
2022-07-29T05:06:48.607Z,4.00
2022-07-29T05:09:16.857Z,3.90
2022-07-29T05:11:46.835Z,3.72
2022-07-29T05:14:15.705Z,4.55
2022-07-29T05:16:44.732Z,3.53
2022-07-29T05:19:14.625Z,3.65
2022-07-29T05:21:43.449Z,3.58
2022-07-29T05:24:12.869Z,3.95
2022-07-29T05:26:41.892Z,3.88
2022-07-29T05:29:43.202Z,3.45
2022-07-29T05:32:00.395Z,3.90
2022-07-29T05:34:28.870Z,3.42
2022-07-29T05:36:57.513Z,4.25
2022-07-29T05:39:47.159Z,3.40
2022-07-29T05:42:14.308Z,3.60
2022-07-29T05:44:43.968Z,3.92
2022-07-29T05:47:12.507Z,3.70
2022-07-29T05:49:40.779Z,3.67
2022-07-29T05:52:09.119Z,3.58
2022-07-29T05:54:37.545Z,3.92
2022-07-29T05:57:06.336Z,3.70
2022-07-29T05:59:37.775Z,3.72
2022-07-29T06:02:07.597Z,4.18
2022-07-29T06:04:36.181Z,4.25
2022-07-29T06:07:04.392Z,4.43
2022-07-29T06:09:36.225Z,3.97
2022-07-29T06:12:05.596Z,3.90
2022-07-29T06:14:34.004Z,3.95
2022-07-29T06:17:02.319Z,4.40
2022-07-29T06:19:32.019Z,4.30
2022-07-29T06:22:00.321Z,4.10
2022-07-29T06:24:28.557Z,3.75
2022-07-29T06:26:56.921Z,4.25
2022-07-29T06:29:25.292Z,3.85
2022-07-29T06:31:53.476Z,3.95
2022-07-29T06:34:21.628Z,3.30
2022-07-29T06:36:53.703Z,3.58
2022-07-29T06:39:23.305Z,3.42
2022-07-29T06:41:52.597Z,3.60
2022-07-29T06:44:21.016Z,3.25
2022-07-29T06:46:50.777Z,3.45
2022-07-29T06:49:19.204Z,3.42
2022-07-29T06:51:47.611Z,3.08
2022-07-29T06:54:17.984Z,3.00
2022-07-29T06:56:46.751Z,3.15
2022-07-29T06:59:15.547Z,3.35
2022-07-29T07:01:45.413Z,3.13
2022-07-29T07:04:15.251Z,3.22
2022-07-29T07:06:43.673Z,2.97
2022-07-29T07:09:11.820Z,2.92
2022-07-29T07:11:41.395Z,2.85
2022-07-29T07:14:09.583Z,3.33
2022-07-29T07:16:37.872Z,2.90
2022-07-29T07:19:06.151Z,2.97
2022-07-29T07:21:35.281Z,2.75
2022-07-29T07:24:04.529Z,2.67
2022-07-29T07:26:33.217Z,3.20
2022-07-29T07:29:02.800Z,2.90
2022-07-29T07:31:31.315Z,2.78
2022-07-29T07:34:00.022Z,2.70
2022-07-29T07:36:28.194Z,2.90
2022-07-29T07:38:56.385Z,3.13
2022-07-29T07:41:25.401Z,2.95
2022-07-29T07:43:54.115Z,2.63
2022-07-29T07:46:24.001Z,2.75
2022-07-29T07:48:53.304Z,3.10
2022-07-29T07:51:21.929Z,2.67
2022-07-29T07:53:51.315Z,2.80
2022-07-29T07:56:19.727Z,3.15
2022-07-29T07:58:48.391Z,3.33
2022-07-29T08:01:19.937Z,2.95
2022-07-29T08:03:50.082Z,3.30
2022-07-29T08:06:18.695Z,3.00
2022-07-29T08:08:46.967Z,2.53
2022-07-29T08:11:15.590Z,3.10
2022-07-29T08:13:44.172Z,3.00
2022-07-29T08:16:16.318Z,2.78
2022-07-29T08:18:47.259Z,2.90
2022-07-29T08:21:17.751Z,2.70
2022-07-29T08:23:59.573Z,3.72
2022-07-29T08:26:30.142Z,3.00
2022-07-29T08:28:58.416Z,2.85
2022-07-29T08:31:26.716Z,3.35
2022-07-29T08:33:57.226Z,3.40
2022-07-29T08:36:27.044Z,2.88
2022-07-29T08:38:55.825Z,2.83
2022-07-29T08:41:24.855Z,3.17
2022-07-29T08:43:53.926Z,2.85
2022-07-29T08:46:23.637Z,3.15
2022-07-29T08:48:52.647Z,2.97
2022-07-29T08:51:22.706Z,2.92
2022-07-29T08:53:53.466Z,3.03
2022-07-29T08:56:22.883Z,3.00
2022-07-29T08:58:52.723Z,3.50
2022-07-29T09:01:36.166Z,3.10
2022-07-29T09:04:13.924Z,3.00
2022-07-29T09:06:46.566Z,3.50
2022-07-29T09:09:16.978Z,3.10
2022-07-29T09:11:45.812Z,2.92
2022-07-29T09:14:16.364Z,3.10
2022-07-29T09:16:54.528Z,3.47
2022-07-29T09:19:29.737Z,2.97
2022-07-29T09:22:03.085Z,2.85
2022-07-29T09:24:45.433Z,3.47
2022-07-29T09:27:23.099Z,3.47
2022-07-29T09:30:00.124Z,3.17
2022-07-29T09:32:29.227Z,3.58
2022-07-29T09:35:23.276Z,2.85
2022-07-29T09:37:51.872Z,3.17
2022-07-29T09:40:23.813Z,3.30
2022-07-29T09:42:53.882Z,3.67
2022-07-29T09:45:31.388Z,3.40
2022-07-29T09:48:04.044Z,3.22
2022-07-29T09:50:41.167Z,3.10
2022-07-29T09:53:11.344Z,3.63
2022-07-29T09:56:02.595Z,3.53
2022-07-29T09:58:30.902Z,2.88
2022-07-29T10:00:59.455Z,2.60
2022-07-29T10:03:28.376Z,2.67
2022-07-29T10:06:10.503Z,2.88
2022-07-29T10:08:39.463Z,3.30
2022-07-29T10:11:17.031Z,2.40
2022-07-29T10:13:47.644Z,2.50
2022-07-29T10:16:17.762Z,2.97
2022-07-29T10:18:47.839Z,3.13
2022-07-29T10:21:34.860Z,2.90
2022-07-29T10:24:06.921Z,2.20
2022-07-29T10:26:45.712Z,2.58
2022-07-29T10:29:14.591Z,2.40
2022-07-29T10:31:57.013Z,2.70
2022-07-29T10:34:38.989Z,1.88
2022-07-29T10:37:29.448Z,2.15
2022-07-29T10:40:37.376Z,2.38
2022-07-29T10:43:33.858Z,2.33
2022-07-29T10:46:03.711Z,2.20
2022-07-29T10:48:39.412Z,2.50
2022-07-29T10:51:12.690Z,2.63
2022-07-29T10:54:00.798Z,2.55
2022-07-29T10:56:33.691Z,2.38
2022-07-29T11:03:01.433Z,2.13
2022-07-29T11:05:59.816Z,2.25
2022-07-29T11:08:32.279Z,1.67
2022-07-29T11:11:43.819Z,2.38
2022-07-29T11:14:18.597Z,2.42
2022-07-29T11:17:08.766Z,2.05
2022-07-29T11:19:49.304Z,2.55
2022-07-29T11:22:35.297Z,2.47
2022-07-29T11:25:16.794Z,2.78
2022-07-29T11:27:46.213Z,2.33
2022-07-29T11:30:16.659Z,2.00
2022-07-29T11:32:49.610Z,1.80
2022-07-29T11:35:37.553Z,2.20
2022-07-29T11:41:27.546Z,2.17
2022-07-29T11:43:59.510Z,1.75
2022-07-29T11:46:51.375Z,2.17
2022-07-29T11:49:32.236Z,2.03
2022-07-29T11:52:03.829Z,1.75
2022-07-29T11:54:57.155Z,1.80
2022-07-29T11:57:29.551Z,2.33
2022-07-29T12:00:12.242Z,1.98
2022-07-29T12:02:43.199Z,2.00
2022-07-29T12:05:13.358Z,1.80
2022-07-29T12:07:03.883Z,2.05
2022-07-29T12:07:45.410Z,2.38
2022-07-29T12:10:19.728Z,1.98
2022-07-29T12:12:58.131Z,1.77
2022-07-29T12:15:31.471Z,2.30
2022-07-29T12:18:18.595Z,2.00
2022-07-29T12:20:49.801Z,2.25
2022-07-29T12:23:18.801Z,2.63
2022-07-29T12:25:49.889Z,2.25
2022-07-29T12:28:26.891Z,1.92
2022-07-29T12:30:56.271Z,1.92
2022-07-29T12:33:27.517Z,1.77
2022-07-29T12:36:06.992Z,2.00
2022-07-29T12:38:37.141Z,2.17
2022-07-29T12:41:05.879Z,2.10
2022-07-29T12:43:34.297Z,2.50
2022-07-29T12:46:20.375Z,2.15
2022-07-29T12:48:55.714Z,2.55
2022-07-29T12:51:34.170Z,1.90
2022-07-29T12:54:11.604Z,2.17
2022-07-29T12:56:43.290Z,2.03
2022-07-29T12:59:16.528Z,2.13
2022-07-29T13:01:45.269Z,2.35
2022-07-29T13:04:13.857Z,2.50
2022-07-29T13:06:46.010Z,2.75
2022-07-29T13:09:20.049Z,2.28
2022-07-29T13:11:51.093Z,2.22
2022-07-29T13:14:35.107Z,2.53
2022-07-29T13:17:07.681Z,2.45
2022-07-29T13:19:41.394Z,2.67
2022-07-29T13:22:12.546Z,2.10
2022-07-29T13:24:52.739Z,2.47
2022-07-29T13:27:22.984Z,2.85
2022-07-29T13:29:53.474Z,2.60
2022-07-29T13:32:27.897Z,2.20
2022-07-29T13:34:57.569Z,2.45
2022-07-29T13:37:30.773Z,3.10
2022-07-29T13:40:00.250Z,3.10
2022-07-29T13:42:30.394Z,2.90
2022-07-29T13:44:58.658Z,2.08
2022-07-29T13:47:32.660Z,2.53
2022-07-29T13:50:02.056Z,2.60
2022-07-29T13:52:32.190Z,2.33
2022-07-29T13:55:00.476Z,2.35
2022-07-29T13:57:29.223Z,3.00
2022-07-29T13:59:58.023Z,2.20
2022-07-29T14:02:26.494Z,2.53
2022-07-29T14:04:55.555Z,2.20
2022-07-29T14:07:24.896Z,2.60
2022-07-29T14:09:54.694Z,2.28
2022-07-29T14:12:23.538Z,1.98
2022-07-29T14:14:51.941Z,2.63
2022-07-29T14:17:20.157Z,2.20
2022-07-29T14:19:48.908Z,2.20
2022-07-29T14:22:19.644Z,2.35
2022-07-29T14:24:50.517Z,2.00
2022-07-29T14:27:37.893Z,2.20
2022-07-29T14:30:09.365Z,2.38
2022-07-29T14:32:37.671Z,2.55
2022-07-29T14:35:07.348Z,2.00
2022-07-29T14:37:39.940Z,2.25
2022-07-29T14:40:10.857Z,1.80
2022-07-29T14:42:41.656Z,2.22
2022-07-29T14:45:11.629Z,2.40
2022-07-29T14:47:41.408Z,2.40
2022-07-29T14:50:11.227Z,2.17
2022-07-29T14:52:39.629Z,2.33
2022-07-29T14:55:16.712Z,2.45
2022-07-29T14:57:50.902Z,2.45
2022-07-29T15:00:21.292Z,2.35
2022-07-29T15:03:01.875Z,2.85
2022-07-29T15:05:32.062Z,2.40
2022-07-29T15:08:01.367Z,2.47
2022-07-29T15:10:30.332Z,2.90
2022-07-29T15:13:00.412Z,2.00
2022-07-29T15:15:29.021Z,2.72
2022-07-29T15:17:57.348Z,2.38
2022-07-29T15:20:28.048Z,2.83
2022-07-29T15:22:56.936Z,3.00
2022-07-29T15:25:28.240Z,2.67
2022-07-29T15:28:01.125Z,2.55
2022-07-29T15:30:34.564Z,2.70
2022-07-29T15:33:04.862Z,2.35
2022-07-29T15:35:40.087Z,2.80
2022-07-29T15:38:09.354Z,2.78
2022-07-29T15:40:40.201Z,2.38
2022-07-29T15:43:08.445Z,2.15
2022-07-29T15:46:03.658Z,2.00
2022-07-29T15:48:32.411Z,2.28
2022-07-29T15:51:01.403Z,2.08
2022-07-29T15:53:29.888Z,2.22
2022-07-29T15:55:58.444Z,3.17
2022-07-29T15:58:27.015Z,2.13
2022-07-29T16:00:57.240Z,2.35
2022-07-29T16:03:25.498Z,2.38
2022-07-29T16:05:53.752Z,2.13
2022-07-29T16:08:22.065Z,2.55
2022-07-29T16:10:50.323Z,2.45
2022-07-29T16:13:23.229Z,2.30
2022-07-29T16:16:02.925Z,2.75
2022-07-29T16:18:33.569Z,2.25
2022-07-29T16:21:02.727Z,2.38
2022-07-29T16:23:32.678Z,2.40
2022-07-29T16:26:03.522Z,2.20
2022-07-29T16:28:32.205Z,2.75
2022-07-29T16:31:01.634Z,2.00
2022-07-29T16:33:54.948Z,2.70
2022-07-29T16:36:20.187Z,2.00
2022-07-29T16:38:49.679Z,2.40
2022-07-29T16:41:17.855Z,2.42
2022-07-29T16:43:46.276Z,2.65
2022-07-29T16:46:18.607Z,2.40
2022-07-29T16:48:47.546Z,2.25
2022-07-29T16:51:16.835Z,2.20
2022-07-29T16:53:49.858Z,2.60
2022-07-29T16:56:18.850Z,2.47
2022-07-29T16:58:47.184Z,2.15
2022-07-29T17:01:16.091Z,2.28
2022-07-29T17:04:00.230Z,2.00
2022-07-29T17:06:29.825Z,2.38
2022-07-29T17:08:59.486Z,2.30
2022-07-29T17:11:53.424Z,2.42
2022-07-29T17:14:16.192Z,1.90
2022-07-29T17:17:02.078Z,2.25
2022-07-29T17:19:33.789Z,1.83
2022-07-29T17:22:10.514Z,1.73
2022-07-29T17:24:42.883Z,2.35
2022-07-29T17:27:11.854Z,2.30
2022-07-29T17:29:40.907Z,2.10
2022-07-29T17:32:10.464Z,2.05
2022-07-29T17:34:40.127Z,2.20
2022-07-29T17:37:11.211Z,1.88
2022-07-29T17:39:42.144Z,1.83
2022-07-29T17:42:11.918Z,2.30
2022-07-29T17:44:41.750Z,1.75
2022-07-29T17:47:15.662Z,1.92
2022-07-29T17:49:45.410Z,2.00
2022-07-29T17:52:13.784Z,2.13
2022-07-29T17:54:43.446Z,2.28
2022-07-29T17:57:11.658Z,2.03
2022-07-29T17:59:40.099Z,2.10
2022-07-29T18:02:09.991Z,2.00
2022-07-29T18:04:38.379Z,2.03
2022-07-29T18:07:06.705Z,2.30
2022-07-29T18:09:38.877Z,5.28
2022-07-29T18:12:10.208Z,2.47
2022-07-29T18:14:38.923Z,2.10
2022-07-29T18:17:07.216Z,2.00
2022-07-29T18:19:35.631Z,2.92
2022-07-29T18:22:05.126Z,2.10
2022-07-29T18:24:35.866Z,3.58
2022-07-29T18:27:04.085Z,2.50
2022-07-29T18:29:34.770Z,2.42
2022-07-29T18:32:03.227Z,2.00
2022-07-29T18:34:31.991Z,2.50
2022-07-29T18:37:00.656Z,2.10
2022-07-29T18:39:29.152Z,2.10
2022-07-29T18:41:57.433Z,2.45
2022-07-29T18:44:25.803Z,2.70
2022-07-29T18:46:55.958Z,2.42
2022-07-29T18:49:26.142Z,2.00
2022-07-29T18:51:54.637Z,2.75
2022-07-29T18:54:23.165Z,2.40
2022-07-29T18:56:51.312Z,2.38
2022-07-29T18:59:20.664Z,2.58
2022-07-29T19:01:49.654Z,2.85
2022-07-29T19:04:19.662Z,2.22
2022-07-29T19:06:47.929Z,2.22
2022-07-29T19:09:17.521Z,2.50
2022-07-29T19:11:45.979Z,2.42
2022-07-29T19:14:14.522Z,2.70
2022-07-29T19:16:42.741Z,2.45
2022-07-29T19:19:10.965Z,2.30
2022-07-29T19:21:40.524Z,2.85
2022-07-29T19:24:13.577Z,2.92
2022-07-29T19:26:46.848Z,2.70
2022-07-29T19:29:16.052Z,2.60
2022-07-29T19:31:44.883Z,2.90
2022-07-29T19:34:13.398Z,2.88
2022-07-29T19:36:42.982Z,2.47
2022-07-29T19:39:11.528Z,2.83
2022-07-29T19:41:40.016Z,2.80
2022-07-29T19:44:08.245Z,2.80
2022-07-29T19:46:36.439Z,2.72
2022-07-29T19:49:06.550Z,3.20
2022-07-29T19:51:35.052Z,3.00
2022-07-29T19:54:05.930Z,2.95
2022-07-29T19:56:34.393Z,3.70
2022-07-29T19:59:07.360Z,2.63
2022-07-29T20:01:36.010Z,3.17
2022-07-29T20:04:04.399Z,2.65
2022-07-29T20:06:32.594Z,3.30
2022-07-29T20:09:00.864Z,3.80
2022-07-29T20:11:30.714Z,3.65
2022-07-29T20:13:58.857Z,3.83
2022-07-29T20:16:27.026Z,3.60
2022-07-29T20:18:55.257Z,4.10
2022-07-29T20:21:23.683Z,3.70
2022-07-29T20:23:51.874Z,4.22
2022-07-29T20:26:20.464Z,3.88
2022-07-29T20:28:50.471Z,3.85
2022-07-29T20:31:19.819Z,3.72
2022-07-29T20:33:48.113Z,4.13
2022-07-29T20:36:16.844Z,3.85
2022-07-29T20:38:45.025Z,3.65
2022-07-29T20:41:29.528Z,3.65
2022-07-29T20:44:02.579Z,3.97
2022-07-29T20:46:33.883Z,4.00
2022-07-29T20:49:11.883Z,3.85
2022-07-29T20:51:46.732Z,4.30
2022-07-29T20:54:21.732Z,4.60
2022-07-29T20:57:06.858Z,4.30
2022-07-29T20:59:37.214Z,4.35
2022-07-29T21:02:09.378Z,4.60
2022-07-29T21:04:38.120Z,4.75
2022-07-29T21:07:06.303Z,4.78
2022-07-29T21:09:36.911Z,4.38
2022-07-29T21:12:06.538Z,4.90
2022-07-29T21:14:49.395Z,4.95
2022-07-29T21:17:25.852Z,4.32
2022-07-29T21:19:55.363Z,4.22
2022-07-29T21:22:23.927Z,4.75
2022-07-29T21:24:55.326Z,4.57
2022-07-29T21:27:41.350Z,4.60
2022-07-29T21:30:11.745Z,4.70
2022-07-29T21:32:40.048Z,4.93
2022-07-29T21:35:45.256Z,4.30
2022-07-29T21:38:08.529Z,4.50
2022-07-29T21:40:37.810Z,4.63
2022-07-29T21:43:06.023Z,4.80
2022-07-29T21:45:37.989Z,4.20
2022-07-29T21:48:07.151Z,4.75
2022-07-29T21:50:36.597Z,4.80
2022-07-29T21:53:04.767Z,4.90
2022-07-29T21:55:34.146Z,4.65
2022-07-29T21:58:03.837Z,4.45
2022-07-29T22:00:33.822Z,4.78
2022-07-29T22:03:06.764Z,5.32
2022-07-29T22:05:35.439Z,5.20
2022-07-29T22:08:03.907Z,5.00
2022-07-29T22:10:33.509Z,5.28
2022-07-29T22:13:03.153Z,5.43
2022-07-29T22:15:32.318Z,5.65
2022-07-29T22:18:02.186Z,5.07
2022-07-29T22:20:30.384Z,4.70
2022-07-29T22:22:58.570Z,4.97
2022-07-29T22:25:28.553Z,5.03
2022-07-29T22:27:56.748Z,5.53
2022-07-29T22:30:25.060Z,5.70
2022-07-29T22:32:53.231Z,5.68
2022-07-29T22:35:22.810Z,5.13
2022-07-29T22:37:51.166Z,5.70
2022-07-29T22:40:19.459Z,5.57
2022-07-29T22:42:47.700Z,5.28
2022-07-29T22:45:16.023Z,5.68
2022-07-29T22:47:48.439Z,5.45
2022-07-29T22:50:17.858Z,5.57
2022-07-29T22:52:47.940Z,5.25
2022-07-29T22:55:16.810Z,5.13
2022-07-29T22:57:44.989Z,5.45
2022-07-29T23:00:14.915Z,5.35
2022-07-29T23:02:43.110Z,4.95
2022-07-29T23:05:11.700Z,5.40
2022-07-29T23:07:39.873Z,4.93
2022-07-29T23:10:11.326Z,5.18
2022-07-29T23:12:41.941Z,4.93
2022-07-29T23:15:10.511Z,5.28
2022-07-29T23:17:38.678Z,5.90
2022-07-29T23:20:09.891Z,5.53
2022-07-29T23:22:38.483Z,5.10
2022-07-29T23:25:09.718Z,5.15
2022-07-29T23:27:37.943Z,5.57
2022-07-29T23:30:07.742Z,5.40
2022-07-29T23:32:35.936Z,5.50
2022-07-29T23:35:05.588Z,5.57
2022-07-29T23:37:33.828Z,5.38
2022-07-29T23:40:02.199Z,5.47
2022-07-29T23:42:31.738Z,5.53
2022-07-29T23:45:00.153Z,5.25
2022-07-29T23:47:29.063Z,5.47
2022-07-29T23:49:57.361Z,5.80
2022-07-29T23:52:25.664Z,5.45
2022-07-29T23:54:54.101Z,5.70
2022-07-29T23:57:24.120Z,5.75
2022-07-29T23:59:54.255Z,5.35
